Time;durP1;ratioP1;P1;durP2;ratioP2;P2;SDS_P1;SDS_P2;PMS_P1;PMS_P2;Temp;Humidity;BMP_temperature;BMP_pressure;BME280_temperature;BME280_humidity;BME280_pressure;Samples;Min_cycle;Max_cycle;Signal;HPM_P1;HPM_P2
2022/02/17 00:00:41;;;;;;;1.10;1.00;;;;;;;13.71;73.74;95780.63;4927534;28;20182;-88
2022/02/17 00:03:07;;;;;;;1.00;0.90;;;;;;;13.60;73.84;95806.22;4932754;28;20176;-86
2022/02/17 00:05:33;;;;;;;1.10;1.00;;;;;;;13.89;73.25;95776.25;4915704;28;20391;-88
2022/02/17 00:07:59;;;;;;;1.33;1.10;;;;;;;13.79;72.84;95760.81;4915682;28;20611;-88
2022/02/17 00:10:26;;;;;;;1.30;0.90;;;;;;;14.26;71.42;95779.53;4915874;28;20200;-87
2022/02/17 00:12:53;;;;;;;0.73;0.73;;;;;;;14.34;71.00;95791.09;4948532;28;20196;-86
2022/02/17 00:15:18;;;;;;;0.93;0.82;;;;;;;13.96;73.15;95775.81;4948642;28;20578;-87
2022/02/17 00:17:44;;;;;;;2.10;0.90;;;;;;;13.80;73.25;95781.44;4932552;28;20177;-89
2022/02/17 00:20:10;;;;;;;1.52;1.00;;;;;;;13.61;73.64;95770.41;4915334;28;20334;-86
2022/02/17 00:22:36;;;;;;;2.35;1.33;;;;;;;14.10;72.47;95794.81;4931828;28;20172;-86
2022/02/17 00:25:03;;;;;;;1.05;0.82;;;;;;;13.94;73.07;95783.22;4931648;28;20177;-85
2022/02/17 00:27:28;;;;;;;1.30;0.93;;;;;;;14.03;72.26;95770.94;4926117;28;20463;-87
2022/02/17 00:29:54;;;;;;;1.15;0.98;;;;;;;14.05;72.42;95776.63;4912712;28;20296;-87
2022/02/17 00:32:19;;;;;;;1.30;1.10;;;;;;;13.98;72.57;95771.84;4945885;28;20134;-87
2022/02/17 00:34:45;;;;;;;1.52;1.15;;;;;;;14.07;72.60;95778.94;4915940;28;20231;-86
2022/02/17 00:37:10;;;;;;;1.27;1.13;;;;;;;14.01;72.43;95768.63;4932155;28;20204;-85
2022/02/17 00:39:35;;;;;;;1.52;0.90;;;;;;;13.83;73.11;95765.16;4931167;28;20273;-87
2022/02/17 00:42:02;;;;;;;1.45;0.95;;;;;;;13.76;73.02;95756.97;4915727;28;20646;-90
2022/02/17 00:44:27;;;;;;;0.93;0.82;;;;;;;13.84;73.33;95786.84;4930959;28;20701;-85
2022/02/17 00:46:55;;;;;;;1.05;1.05;;;;;;;14.21;71.95;95769.19;4921621;28;20207;-86
2022/02/17 00:49:22;;;;;;;2.90;0.98;;;;;;;13.99;72.35;95767.38;4915614;28;20203;-85
2022/02/17 00:51:48;;;;;;;0.80;0.80;;;;;;;14.14;72.20;95768.84;4910952;28;20287;-87
2022/02/17 00:54:13;;;;;;;2.13;0.93;;;;;;;14.09;72.43;95772.34;4915490;28;20280;-86
2022/02/17 00:56:38;;;;;;;1.20;0.90;;;;;;;14.30;71.30;95780.44;4916280;28;20343;-83
2022/02/17 00:59:04;;;;;;;1.55;0.73;;;;;;;14.09;72.26;95758.50;4947259;28;20215;-85
2022/02/17 01:01:29;;;;;;;1.13;0.88;;;;;;;13.94;73.22;95768.28;4908896;28;20587;-87
2022/02/17 01:03:54;;;;;;;2.17;1.10;;;;;;;14.09;72.32;95753.28;4929105;28;20200;-86
2022/02/17 01:06:20;;;;;;;1.30;1.20;;;;;;;14.02;72.92;95749.22;4948000;28;20729;-86
2022/02/17 01:08:45;;;;;;;2.45;0.70;;;;;;;13.68;74.18;95742.75;4931814;28;20696;-88
2022/02/17 01:11:10;;;;;;;2.13;1.13;;;;;;;14.13;72.73;95734.03;4912081;28;20188;-86
2022/02/17 01:13:36;;;;;;;1.63;0.77;;;;;;;14.04;72.78;95725.38;4912386;28;20272;-87
2022/02/17 01:16:01;;;;;;;0.73;0.60;;;;;;;14.23;72.14;95738.22;4929105;28;20177;-88
2022/02/17 01:18:27;;;;;;;2.58;0.90;;;;;;;14.32;71.98;95759.97;4913644;28;20195;-88
2022/02/17 01:20:52;;;;;;;1.98;0.75;;;;;;;14.27;72.32;95760.09;4927728;28;20292;-87
2022/02/17 01:23:18;;;;;;;0.98;0.60;;;;;;;13.95;73.17;95769.03;4911381;28;20596;-86
2022/02/17 01:25:43;;;;;;;0.90;0.60;;;;;;;14.25;72.22;95762.25;4923020;28;20669;-87
2022/02/17 01:28:09;;;;;;;1.88;0.43;;;;;;;14.08;73.03;95752.47;4947641;28;20242;-88
2022/02/17 01:30:35;;;;;;;1.10;0.50;;;;;;;13.95;73.72;95741.03;4930752;28;20242;-86
2022/02/17 01:33:00;;;;;;;1.13;0.40;;;;;;;14.07;73.18;95703.06;4916531;28;20199;-87
2022/02/17 01:35:26;;;;;;;1.80;1.27;;;;;;;14.02;73.16;95717.06;4929956;28;20203;-88
2022/02/17 01:37:51;;;;;;;0.82;0.70;;;;;;;13.82;73.42;95723.59;4914176;28;20363;-88
2022/02/17 01:40:17;;;;;;;1.23;0.63;;;;;;;14.00;72.80;95712.13;4914420;28;20291;-87
2022/02/17 01:42:44;;;;;;;1.10;0.70;;;;;;;14.18;72.65;95727.88;4914428;28;20164;-87
2022/02/17 01:45:10;;;;;;;0.75;0.55;;;;;;;13.86;74.04;95745.44;4916835;28;20281;-87
2022/02/17 01:47:35;;;;;;;0.90;0.70;;;;;;;13.98;73.13;95703.81;4947864;28;20231;-85
2022/02/17 01:50:01;;;;;;;0.95;0.70;;;;;;;13.99;73.34;95699.34;4930926;28;20183;-87
2022/02/17 01:52:26;;;;;;;0.85;0.73;;;;;;;13.96;73.77;95698.09;4915590;28;20234;-89
2022/02/17 01:54:52;;;;;;;2.10;0.75;;;;;;;13.95;73.83;95696.56;4930804;28;20224;-88
2022/02/17 01:57:22;;;;;;;1.65;0.77;;;;;;;14.00;72.88;95693.81;4914577;28;20672;-85
2022/02/17 01:59:47;;;;;;;1.85;0.80;;;;;;;13.97;73.40;95683.94;4928226;28;20180;-85
2022/02/17 02:02:13;;;;;;;0.95;0.60;;;;;;;14.12;73.22;95687.22;4914520;28;20207;-86
2022/02/17 02:04:38;;;;;;;0.93;0.60;;;;;;;14.08;72.86;95691.53;4930243;28;20172;-86
2022/02/17 02:07:05;;;;;;;1.10;0.80;;;;;;;14.15;73.08;95699.69;4930209;28;20294;-87
2022/02/17 02:09:31;;;;;;;2.05;1.42;;;;;;;14.22;72.43;95689.56;4946550;28;20631;-86
2022/02/17 02:11:56;;;;;;;0.50;0.50;;;;;;;13.96;73.55;95692.09;4930783;28;20179;-88
2022/02/17 02:14:22;;;;;;;0.50;0.40;;;;;;;14.29;72.44;95692.53;4946451;28;20180;-88
2022/02/17 02:16:47;;;;;;;0.80;0.55;;;;;;;14.01;73.81;95677.03;4931252;28;20317;-87
2022/02/17 02:19:13;;;;;;;1.30;0.70;;;;;;;14.00;73.65;95703.50;4915683;28;20184;-88
2022/02/17 02:21:38;;;;;;;1.13;0.47;;;;;;;14.04;73.79;95707.06;4945792;28;20094;-88
2022/02/17 02:24:05;;;;;;;2.20;0.55;;;;;;;14.41;72.21;95708.41;4930578;28;20258;-88
2022/02/17 02:26:30;;;;;;;0.73;0.30;;;;;;;14.00;73.72;95683.34;4918440;28;20161;-87
2022/02/17 02:28:56;;;;;;;0.40;0.40;;;;;;;14.19;73.10;95700.66;4944065;28;20570;-88
2022/02/17 02:31:22;;;;;;;0.43;0.28;;;;;;;13.87;74.00;95673.75;4929949;28;20724;-88
2022/02/17 02:33:48;;;;;;;1.05;0.40;;;;;;;14.02;74.08;95722.31;4913924;28;20157;-85
2022/02/17 02:36:14;;;;;;;0.50;0.38;;;;;;;14.37;72.40;95732.88;4930571;28;20183;-87
2022/02/17 02:38:39;;;;;;;0.40;0.30;;;;;;;14.33;72.41;95696.06;4930019;28;20714;-89
2022/02/17 02:41:05;;;;;;;0.30;0.30;;;;;;;14.39;72.44;95699.31;4913871;28;20191;-87
2022/02/17 02:43:30;;;;;;;0.20;0.20;;;;;;;14.26;72.85;95703.59;4946833;28;20222;-87
2022/02/17 02:45:55;;;;;;;1.13;0.50;;;;;;;14.57;71.85;95693.03;4947045;28;20161;-87
2022/02/17 02:48:21;;;;;;;0.30;0.25;;;;;;;14.51;71.76;95698.72;4929239;28;20208;-88
2022/02/17 02:50:46;;;;;;;1.38;0.20;;;;;;;14.32;72.22;95694.50;4927056;28;20193;-88
2022/02/17 02:53:14;;;;;;;0.93;0.30;;;;;;;14.37;72.82;95709.31;4913670;28;20282;-85
2022/02/17 02:55:49;;;;;;;0.30;0.30;;;;;;;14.07;72.90;95701.22;4946105;28;20696;-85
2022/02/17 02:58:16;;;;;;;0.75;0.30;;;;;;;14.45;72.03;95699.94;4946300;28;20634;-87
2022/02/17 03:00:45;;;;;;;1.42;0.30;;;;;;;14.34;72.34;95687.16;4929892;28;20192;-86
2022/02/17 03:03:12;;;;;;;0.65;0.20;;;;;;;14.54;71.38;95704.09;4946544;28;20572;-86
2022/02/17 03:05:37;;;;;;;0.32;0.20;;;;;;;14.73;71.04;95706.47;4912095;28;20216;-85
2022/02/17 03:08:03;;;;;;;0.20;0.20;;;;;;;14.63;71.52;95704.16;4930007;28;20704;-85
2022/02/17 03:10:30;;;;;;;0.57;0.30;;;;;;;14.45;72.45;95720.91;4920180;28;20172;-87
2022/02/17 03:12:56;;;;;;;0.30;0.30;;;;;;;14.00;73.61;95719.97;4926977;28;20130;-83
2022/02/17 03:15:22;;;;;;;0.25;0.20;;;;;;;14.17;73.25;95734.19;4911872;28;20623;-86
2022/02/17 03:17:48;;;;;;;0.68;0.30;;;;;;;14.15;73.36;95757.28;4914213;28;20084;-88
2022/02/17 03:20:13;;;;;;;0.77;0.20;;;;;;;14.24;72.65;95745.03;4929033;28;20102;-84
2022/02/17 03:22:40;;;;;;;1.02;0.30;;;;;;;13.99;72.77;95734.13;4913981;28;20369;-89
2022/02/17 03:25:07;;;;;;;0.40;0.30;;;;;;;14.29;71.64;95734.41;4946905;28;20212;-86
2022/02/17 03:27:33;;;;;;;0.60;0.30;;;;;;;14.00;72.34;95740.91;4926826;28;20704;-87
2022/02/17 03:29:58;;;;;;;0.68;0.28;;;;;;;14.02;71.49;95757.09;4950305;28;20168;-85
2022/02/17 03:32:24;;;;;;;0.60;0.30;;;;;;;14.13;71.16;95769.91;4949906;28;20292;-87
2022/02/17 03:34:49;;;;;;;0.73;0.20;;;;;;;13.76;70.86;95758.78;4931085;28;20710;-87
2022/02/17 03:37:14;;;;;;;0.20;0.20;;;;;;;13.79;71.00;95773.88;4925856;28;20338;-88
2022/02/17 03:39:40;;;;;;;0.30;0.30;;;;;;;13.69;70.44;95793.19;4917244;28;20215;-88
2022/02/17 03:42:06;;;;;;;0.35;0.30;;;;;;;13.67;69.56;95822.28;4917476;28;20183;-87
2022/02/17 03:44:32;;;;;;;1.73;0.30;;;;;;;13.86;69.28;95848.28;4950287;28;20250;-87
2022/02/17 03:46:57;;;;;;;1.90;0.30;;;;;;;13.82;68.23;95838.69;4936246;28;20671;-90
2022/02/17 03:49:23;;;;;;;0.50;0.50;;;;;;;13.76;67.70;95847.72;4932536;28;20219;-86
2022/02/17 03:51:49;;;;;;;1.75;0.57;;;;;;;13.96;67.65;95847.25;4932289;28;20215;-85
2022/02/17 03:54:15;;;;;;;1.98;0.40;;;;;;;13.82;67.81;95843.94;4915688;28;20759;-85
2022/02/17 03:56:40;;;;;;;2.30;0.52;;;;;;;13.86;67.59;95857.94;4932550;28;20216;-85
2022/02/17 03:59:07;;;;;;;2.15;0.85;;;;;;;13.87;67.76;95841.19;4948875;28;20360;-87
2022/02/17 04:01:34;;;;;;;2.28;0.30;;;;;;;13.73;67.31;95835.25;4931396;28;20369;-86
2022/02/17 04:04:04;;;;;;;1.58;0.47;;;;;;;13.85;66.92;95859.03;4933060;28;20252;-85
2022/02/17 04:06:29;;;;;;;1.90;0.80;;;;;;;13.77;65.47;95854.50;4948906;28;20274;-86
2022/02/17 04:08:55;;;;;;;1.98;0.50;;;;;;;13.39;65.44;95842.53;4916871;28;20261;-88
2022/02/17 04:11:21;;;;;;;1.52;0.80;;;;;;;13.51;64.88;95875.22;4932561;28;20346;-87
2022/02/17 04:13:46;;;;;;;2.53;0.50;;;;;;;13.52;63.47;95893.25;4931032;28;20278;-88
2022/02/17 04:16:12;;;;;;;1.75;0.50;;;;;;;13.66;63.64;95920.13;4923166;28;20202;-85
2022/02/17 04:18:38;;;;;;;2.95;0.65;;;;;;;13.34;62.61;95873.25;4949054;28;20263;-88
2022/02/17 04:21:05;;;;;;;3.78;0.60;;;;;;;13.66;61.73;95919.38;4913193;28;20343;-88
2022/02/17 04:23:31;;;;;;;5.95;0.88;;;;;;;13.81;60.74;95937.34;4932192;28;20445;-90
2022/02/17 04:25:56;;;;;;;4.38;0.95;;;;;;;13.80;59.56;95942.88;4913782;28;20177;-86
2022/02/17 04:28:22;;;;;;;2.17;0.40;;;;;;;13.46;59.83;95942.25;4916363;28;20325;-87
2022/02/17 04:30:47;;;;;;;2.60;0.60;;;;;;;13.33;59.88;95968.41;4928301;28;20177;-86
2022/02/17 04:33:13;;;;;;;4.93;1.33;;;;;;;13.39;58.83;95977.72;4929641;28;20161;-84
2022/02/17 04:35:38;;;;;;;4.82;0.90;;;;;;;13.71;58.45;95994.31;4920457;28;20319;-85
2022/02/17 04:38:04;;;;;;;4.18;0.98;;;;;;;13.26;58.64;95982.63;4931665;28;20700;-87
2022/02/17 04:43:13;;;;;;;4.75;0.98;;;;;;;13.35;58.09;96008.88;4941700;28;20184;-84
2022/02/17 04:45:38;;;;;;;3.85;1.35;;;;;;;12.87;58.75;96015.19;4932589;28;20361;-86
2022/02/17 04:48:05;;;;;;;5.88;1.00;;;;;;;12.97;59.03;96018.69;4932181;28;20327;-85
2022/02/17 04:50:30;;;;;;;5.93;1.17;;;;;;;13.12;57.21;96015.78;4915890;28;20207;-84
2022/02/17 04:52:56;;;;;;;5.55;1.52;;;;;;;12.85;57.19;96034.81;4932482;28;20196;-90
2022/02/17 04:55:21;;;;;;;8.75;2.38;;;;;;;13.05;57.10;96023.25;4941819;28;20277;-88
2022/02/17 04:57:47;;;;;;;7.03;1.85;;;;;;;12.88;57.20;96013.34;4928590;28;20709;-87
2022/02/17 05:00:12;;;;;;;7.50;1.55;;;;;;;13.08;56.65;96030.53;4945695;28;20204;-85
2022/02/17 05:02:38;;;;;;;7.47;1.77;;;;;;;12.93;56.95;96031.53;4928538;28;20749;-87
2022/02/17 05:05:04;;;;;;;5.97;1.50;;;;;;;13.19;56.70;96037.09;4928859;28;20281;-86
2022/02/17 05:07:30;;;;;;;6.03;0.95;;;;;;;13.21;57.99;96019.31;4943826;28;20212;-88
2022/02/17 05:09:55;;;;;;;7.10;1.80;;;;;;;12.49;59.92;96017.09;4928366;28;20176;-82
2022/02/17 05:12:21;;;;;;;4.75;1.40;;;;;;;13.08;56.99;96038.34;4915519;28;20211;-85
2022/02/17 05:14:46;;;;;;;8.98;1.42;;;;;;;12.93;57.48;96049.84;4947186;28;20621;-84
2022/02/17 05:17:11;;;;;;;7.15;1.65;;;;;;;12.74;56.73;96036.81;4915312;28;20195;-87
2022/02/17 05:19:37;;;;;;;7.60;1.40;;;;;;;12.87;56.66;96051.75;4913802;28;20249;-83
2022/02/17 05:22:02;;;;;;;11.38;2.80;;;;;;;12.51;57.02;96047.09;4954767;28;20289;-86
2022/02/17 05:24:28;;;;;;;8.38;1.65;;;;;;;12.81;55.96;96065.94;4947281;28;20371;-88
2022/02/17 05:26:54;;;;;;;9.20;1.30;;;;;;;12.95;55.50;96060.00;4906265;28;20185;-84
2022/02/17 05:29:19;;;;;;;9.75;1.40;;;;;;;12.50;55.30;96061.19;4946797;28;20157;-84
2022/02/17 05:31:45;;;;;;;11.15;2.33;;;;;;;12.74;55.25;96081.22;4947198;28;20277;-83
2022/02/17 05:34:10;;;;;;;9.65;1.75;;;;;;;12.46;56.06;96070.66;4953340;28;20178;-84
2022/02/17 05:36:36;;;;;;;15.07;2.67;;;;;;;12.54;55.59;96095.34;4931198;28;20195;-85
2022/02/17 05:39:02;;;;;;;7.20;1.50;;;;;;;12.56;55.59;96095.88;4931290;28;20215;-85
2022/02/17 05:41:28;;;;;;;7.68;1.80;;;;;;;12.51;55.57;96083.66;4928082;28;20236;-83
2022/02/17 05:43:54;;;;;;;6.93;2.35;;;;;;;12.54;55.58;96105.78;4939382;28;20270;-87
2022/02/17 05:46:19;;;;;;;8.95;2.17;;;;;;;12.83;55.56;96105.63;4947067;28;20290;-84
2022/02/17 05:48:45;;;;;;;9.95;2.13;;;;;;;12.86;56.21;96104.28;4930081;28;20076;-86
2022/02/17 05:51:11;;;;;;;9.95;1.73;;;;;;;12.48;55.67;96094.66;4937057;28;20692;-82
2022/02/17 05:53:36;;;;;;;12.52;2.38;;;;;;;12.83;55.54;96095.19;4909814;28;20099;-85
2022/02/17 05:56:02;;;;;;;11.43;1.83;;;;;;;12.65;55.58;96101.97;4929544;28;20581;-84
2022/02/17 05:58:27;;;;;;;8.10;2.28;;;;;;;12.57;57.35;96086.19;4927713;28;20605;-85
2022/02/17 06:00:53;;;;;;;9.07;2.08;;;;;;;12.72;57.04;96101.63;4924792;28;20280;-86
2022/02/17 06:03:18;;;;;;;9.07;2.47;;;;;;;12.49;56.05;96096.22;4913318;28;20196;-86
2022/02/17 06:05:44;;;;;;;10.88;2.25;;;;;;;12.61;56.44;96089.78;4914169;28;20199;-84
2022/02/17 06:08:09;;;;;;;10.43;1.80;;;;;;;12.61;57.37;96064.44;4913307;28;20264;-88
2022/02/17 06:10:34;;;;;;;10.30;1.90;;;;;;;12.72;56.02;96101.63;4928946;28;20213;-85
2022/02/17 06:13:00;;;;;;;8.93;2.20;;;;;;;12.57;57.06;96088.78;4913210;28;20261;-84
2022/02/17 06:15:27;;;;;;;9.18;1.75;;;;;;;12.47;57.67;96061.75;4919925;28;20203;-88
2022/02/17 06:17:52;;;;;;;8.68;1.95;;;;;;;12.51;56.15;96091.47;4913573;28;20765;-84
2022/02/17 06:20:18;;;;;;;10.13;2.35;;;;;;;12.52;56.37;96087.78;4928544;28;20275;-84
2022/02/17 06:22:48;;;;;;;9.05;1.55;;;;;;;12.81;55.40;96107.75;4926343;28;20247;-85
2022/02/17 06:25:15;;;;;;;8.07;1.75;;;;;;;12.52;56.78;96095.63;4943798;28;20203;-85
2022/02/17 06:27:42;;;;;;;10.63;2.55;;;;;;;12.65;56.15;96122.09;4922665;28;20213;-87
2022/02/17 06:30:08;;;;;;;9.55;1.20;;;;;;;12.77;57.30;96130.28;4945353;28;20165;-86
2022/02/17 06:32:34;;;;;;;14.25;2.20;;;;;;;12.64;57.00;96136.22;4945080;28;20346;-86
2022/02/17 06:34:59;;;;;;;7.57;1.45;;;;;;;12.80;57.62;96113.25;4946358;28;20211;-84
2022/02/17 06:37:24;;;;;;;9.52;2.45;;;;;;;12.86;56.80;96123.34;4930969;28;20524;-84
2022/02/17 06:39:50;;;;;;;10.77;2.10;;;;;;;12.52;56.92;96144.47;4924103;28;20213;-86
2022/02/17 06:42:15;;;;;;;6.28;1.80;;;;;;;12.75;57.13;96148.09;4945149;28;20630;-86
2022/02/17 06:44:41;;;;;;;8.20;2.25;;;;;;;12.62;57.48;96160.00;4931397;28;20176;-84
2022/02/17 06:47:06;;;;;;;13.38;2.65;;;;;;;12.42;57.45;96173.31;4935116;28;20775;-85
2022/02/17 06:49:32;;;;;;;11.40;2.45;;;;;;;12.59;57.78;96172.84;4913199;28;20682;-85
2022/02/17 06:51:58;;;;;;;14.23;3.20;;;;;;;12.66;57.53;96165.44;4923976;28;20280;-88
2022/02/17 06:54:24;;;;;;;16.42;3.78;;;;;;;12.69;57.57;96159.66;4945280;28;20298;-87
2022/02/17 06:56:50;;;;;;;6.32;1.58;;;;;;;12.92;56.49;96184.91;4930625;28;20282;-85
2022/02/17 06:59:16;;;;;;;12.35;2.03;;;;;;;12.51;56.54;96188.09;4929207;28;20204;-86
2022/02/17 07:01:42;;;;;;;10.75;1.83;;;;;;;12.69;55.52;96194.38;4932700;28;20207;-85
2022/02/17 07:04:08;;;;;;;8.40;2.05;;;;;;;12.55;56.27;96196.91;4933523;28;20142;-86
2022/02/17 07:06:34;;;;;;;9.30;2.67;;;;;;;12.09;55.68;96205.25;4918306;28;20185;-85
2022/02/17 07:08:59;;;;;;;11.57;1.98;;;;;;;12.13;53.38;96219.31;4951347;28;20268;-88
2022/02/17 07:11:24;;;;;;;11.27;1.98;;;;;;;11.99;52.73;96216.59;4917761;28;20238;-85
2022/02/17 07:13:50;;;;;;;9.98;2.35;;;;;;;12.12;52.30;96237.88;4933019;28;20369;-86
2022/02/17 07:16:15;;;;;;;9.43;2.55;;;;;;;12.36;51.95;96253.53;4941164;28;20250;-85
2022/02/17 07:18:44;;;;;;;7.25;1.55;;;;;;;12.48;52.74;96227.81;4932632;28;20206;-85
2022/02/17 07:21:10;;;;;;;8.43;2.38;;;;;;;12.17;53.03;96222.16;4948918;28;20662;-82
2022/02/17 07:23:36;;;;;;;10.63;1.70;;;;;;;12.09;53.69;96226.13;4965753;28;20227;-86
2022/02/17 07:26:02;;;;;;;9.60;2.25;;;;;;;12.28;53.75;96235.88;4925319;28;20598;-84
2022/02/17 07:28:27;;;;;;;9.02;2.08;;;;;;;12.60;54.00;96256.13;4932432;28;20314;-86
2022/02/17 07:30:53;;;;;;;9.88;2.17;;;;;;;12.42;54.24;96252.41;4912276;28;20187;-86
2022/02/17 07:33:19;;;;;;;8.40;1.88;;;;;;;12.09;54.54;96282.78;4909982;28;20149;-83
2022/02/17 07:35:44;;;;;;;9.40;2.35;;;;;;;12.24;54.08;96279.25;4933198;28;20271;-85
2022/02/17 07:38:11;;;;;;;10.68;2.20;;;;;;;11.99;53.99;96301.91;4942470;28;20238;-85
2022/02/17 07:40:38;;;;;;;12.68;2.65;;;;;;;12.16;53.21;96301.50;4930348;28;20250;-86
2022/02/17 07:43:03;;;;;;;17.35;3.13;;;;;;;12.06;51.40;96306.78;4933049;28;20642;-86
2022/02/17 07:45:28;;;;;;;10.48;2.78;;;;;;;11.99;51.70;96309.72;4932774;28;20173;-82
2022/02/17 07:47:54;;;;;;;16.40;3.45;;;;;;;12.39;51.52;96326.06;4950407;28;20220;-83
2022/02/17 07:50:27;;;;;;;11.32;2.00;;;;;;;12.11;51.28;96323.19;4919865;28;20362;-85
2022/02/17 07:52:53;;;;;;;11.05;2.30;;;;;;;12.59;50.34;96326.91;4933564;28;20157;-88
2022/02/17 07:55:19;;;;;;;13.73;2.90;;;;;;;12.59;50.51;96345.19;4942862;28;20208;-85
2022/02/17 07:57:45;;;;;;;14.52;2.70;;;;;;;12.52;52.28;96298.50;4924257;28;20655;-86
2022/02/17 08:00:11;;;;;;;15.75;3.33;;;;;;;12.25;50.61;96339.00;4947972;28;20086;-88
2022/02/17 08:02:37;;;;;;;12.50;3.22;;;;;;;12.36;50.31;96339.69;4929346;28;20225;-87
2022/02/17 08:05:03;;;;;;;15.15;4.03;;;;;;;12.29;50.70;96350.44;4932450;28;20291;-86
2022/02/17 08:07:31;;;;;;;17.02;3.70;;;;;;;12.52;49.83;96340.28;4915364;28;20225;-85
2022/02/17 08:09:56;;;;;;;12.27;2.85;;;;;;;12.49;49.86;96354.69;4931871;28;20329;-85
2022/02/17 08:12:21;;;;;;;13.25;2.83;;;;;;;12.37;50.14;96351.66;4947566;28;20288;-85
2022/02/17 08:14:47;;;;;;;11.98;2.72;;;;;;;12.54;50.89;96361.69;4929431;28;20749;-85
2022/02/17 08:17:12;;;;;;;11.18;3.30;;;;;;;12.61;51.13;96356.13;4910233;28;20744;-87
2022/02/17 08:19:38;;;;;;;12.75;2.50;;;;;;;12.70;51.37;96341.44;4919471;28;20368;-87
2022/02/17 08:22:03;;;;;;;10.07;2.60;;;;;;;12.32;52.12;96349.09;4916200;28;20749;-88
2022/02/17 08:24:29;;;;;;;13.90;2.55;;;;;;;11.95;53.38;96353.06;4932167;28;20677;-90
2022/02/17 08:26:57;;;;;;;14.82;3.30;;;;;;;12.04;53.34;96346.22;4915216;28;20242;-85
2022/02/17 08:29:23;;;;;;;15.35;2.85;;;;;;;12.08;53.92;96367.31;4916543;28;20238;-87
2022/02/17 08:31:49;;;;;;;11.02;2.72;;;;;;;12.24;53.66;96350.47;4932349;28;20255;-84
2022/02/17 08:34:15;;;;;;;7.65;2.25;;;;;;;11.99;53.64;96377.56;4932629;28;20621;-87
2022/02/17 08:36:41;;;;;;;14.48;3.28;;;;;;;12.24;53.83;96370.59;4916083;28;20307;-86
2022/02/17 08:39:07;;;;;;;17.92;2.97;;;;;;;12.36;53.29;96379.59;4929380;28;20794;-89
2022/02/17 08:41:32;;;;;;;14.68;3.85;;;;;;;12.27;53.58;96367.41;4913145;28;20106;-90
2022/02/17 08:43:58;;;;;;;18.95;4.30;;;;;;;12.36;53.15;96386.66;4925669;28;20279;-86
2022/02/17 08:46:23;;;;;;;17.98;3.28;;;;;;;12.52;53.03;96393.28;4916084;28;20271;-91
2022/02/17 08:48:48;;;;;;;13.30;3.13;;;;;;;12.53;53.05;96401.91;4931739;28;20110;-85
2022/02/17 08:51:17;;;;;;;12.93;3.20;;;;;;;12.44;52.79;96414.00;4948481;28;20277;-86
2022/02/17 08:53:43;;;;;;;10.98;3.40;;;;;;;12.54;52.22;96416.50;4931987;28;20290;-90
2022/02/17 08:56:09;;;;;;;13.77;2.83;;;;;;;12.20;52.63;96419.94;4915083;28;20195;-88
2022/02/17 08:58:34;;;;;;;18.23;3.28;;;;;;;12.01;52.36;96427.63;4930410;28;20272;-85
2022/02/17 09:01:00;;;;;;;12.07;3.20;;;;;;;12.12;52.64;96420.53;4948271;28;20203;-88
2022/02/17 09:03:25;;;;;;;22.70;4.32;;;;;;;12.06;52.68;96422.38;4931347;28;20364;-89
2022/02/17 09:05:52;;;;;;;21.30;5.07;;;;;;;12.24;52.39;96430.63;4931960;28;20272;-86
2022/02/17 09:08:18;;;;;;;16.08;3.08;;;;;;;11.92;53.49;96424.81;4928418;28;20211;-88
2022/02/17 09:10:43;;;;;;;20.40;4.50;;;;;;;11.60;53.14;96422.63;4929306;28;20670;-85
2022/02/17 09:13:08;;;;;;;15.23;3.60;;;;;;;12.18;52.89;96435.88;4923125;28;20093;-89
2022/02/17 09:15:35;;;;;;;17.40;5.20;;;;;;;12.65;52.62;96417.22;4916017;28;20205;-87
2022/02/17 09:18:00;;;;;;;18.55;4.95;;;;;;;12.49;51.82;96406.91;4918593;28;20207;-89
2022/02/17 09:20:26;;;;;;;21.52;5.63;;;;;;;12.38;52.03;96426.31;4931439;28;20626;-91
2022/02/17 09:22:53;;;;;;;15.10;3.80;;;;;;;12.49;52.31;96427.81;4927845;28;20211;-90
2022/02/17 09:25:20;;;;;;;24.15;5.00;;;;;;;12.49;51.63;96432.22;4922992;28;20904;-87
2022/02/17 09:27:45;;;;;;;17.83;4.53;;;;;;;12.58;52.53;96427.19;4944169;28;20227;-88
2022/02/17 09:30:11;;;;;;;20.08;4.63;;;;;;;12.21;52.17;96420.72;4915402;28;20643;-90
2022/02/17 09:32:36;;;;;;;18.83;3.92;;;;;;;12.17;53.41;96431.69;4914233;28;20192;-86
2022/02/17 09:35:02;;;;;;;18.88;3.03;;;;;;;12.42;52.68;96457.88;4931543;28;20693;-89
2022/02/17 09:37:28;;;;;;;18.55;4.32;;;;;;;12.35;51.83;96437.31;4914547;28;20358;-87
2022/02/17 09:39:53;;;;;;;17.13;4.45;;;;;;;12.32;52.05;96443.88;4912785;28;20342;-88
2022/02/17 09:42:19;;;;;;;18.42;3.60;;;;;;;12.50;53.17;96445.00;4931232;28;20334;-88
2022/02/17 09:44:45;;;;;;;15.88;4.22;;;;;;;12.49;52.02;96453.09;4931598;28;20548;-86
2022/02/17 09:47:11;;;;;;;17.38;4.30;;;;;;;12.20;52.35;96450.47;4899481;28;20216;-86
2022/02/17 09:49:38;;;;;;;14.30;4.82;;;;;;;12.27;53.06;96453.53;4914698;28;20642;-86
2022/02/17 09:52:05;;;;;;;13.73;3.65;;;;;;;12.39;52.10;96466.25;4907250;28;20236;-86
2022/02/17 09:54:30;;;;;;;19.10;4.13;;;;;;;12.40;52.37;96455.53;4924876;28;20433;-91
2022/02/17 09:56:56;;;;;;;15.20;3.28;;;;;;;11.77;53.31;96450.97;4914458;28;20665;-87
2022/02/17 09:59:23;;;;;;;12.73;4.03;;;;;;;11.86;55.15;96467.63;4911456;28;20284;-90
2022/02/17 10:02:00;;;;;;;12.05;2.80;;;;;;;11.67;56.48;96492.75;4915299;28;20264;-86
2022/02/17 10:04:27;;;;;;;18.70;3.83;;;;;;;11.23;59.30;96475.97;4924205;28;20217;-87
2022/02/17 10:06:55;;;;;;;12.32;2.60;;;;;;;11.49;59.05;96494.13;4923474;28;20290;-86
2022/02/17 10:09:21;;;;;;;12.02;3.05;;;;;;;11.13;60.47;96496.84;4924282;28;20563;-86
2022/02/17 10:11:48;;;;;;;18.92;3.50;;;;;;;11.36;61.14;96496.25;4947131;28;20150;-89
2022/02/17 10:14:16;;;;;;;19.98;4.63;;;;;;;11.33;61.38;96490.78;4947891;28;20205;-88
2022/02/17 10:17:09;;;;;;;13.32;3.13;;;;;;;10.96;63.27;96516.13;4914243;28;20269;-88
2022/02/17 10:19:35;;;;;;;13.63;3.08;;;;;;;10.81;63.76;96510.94;4942973;28;20378;-89
2022/02/17 10:22:02;;;;;;;23.55;4.82;;;;;;;10.88;64.41;96503.63;4934285;28;20370;-83
2022/02/17 10:24:34;;;;;;;15.65;4.05;;;;;;;10.86;63.65;96503.91;4913738;28;20772;-88
2022/02/17 10:27:06;;;;;;;22.73;3.95;;;;;;;10.51;64.21;96490.91;4945534;28;20192;-87
2022/02/17 10:29:34;;;;;;;16.30;3.70;;;;;;;11.16;63.40;96512.72;4913858;28;20233;-89
2022/02/17 10:32:11;;;;;;;13.73;4.47;;;;;;;10.30;64.23;96502.06;4913822;28;20557;-88
2022/02/17 10:34:38;;;;;;;22.05;5.13;;;;;;;10.73;64.35;96503.66;4914240;28;20227;-89
2022/02/17 10:37:03;;;;;;;21.80;5.32;;;;;;;10.77;62.22;96499.50;4911076;28;20278;-86
2022/02/17 10:39:33;;;;;;;20.52;4.55;;;;;;;11.00;61.47;96527.59;4928127;28;20249;-88
2022/02/17 10:42:03;;;;;;;15.30;3.47;;;;;;;11.33;60.98;96528.06;4928096;28;20154;-86
2022/02/17 10:44:30;;;;;;;17.88;3.15;;;;;;;11.64;59.36;96525.34;4930247;28;20263;-88
2022/02/17 10:46:55;;;;;;;16.70;4.03;;;;;;;11.54;59.26;96517.56;4931464;28;20235;-89
2022/02/17 10:49:21;;;;;;;18.58;4.20;;;;;;;11.80;58.56;96516.41;4908902;28;20539;-87
2022/02/17 10:51:48;;;;;;;20.25;3.97;;;;;;;11.49;58.03;96522.81;4914260;28;20280;-85
2022/02/17 10:54:22;;;;;;;18.92;4.60;;;;;;;11.73;57.08;96531.56;4926585;28;20694;-88
2022/02/17 10:56:51;;;;;;;16.17;4.88;;;;;;;11.85;57.71;96527.88;4928772;28;20215;-88
2022/02/17 11:02:02;;;;;;;;;;;;;;;11.46;57.38;96539.75;4932673;28;20204;-85
2022/02/17 11:04:28;;;;;;;9.35;2.30;;;;;;;11.91;55.31;96542.47;4914025;28;20053;-86
2022/02/17 11:06:53;;;;;;;18.15;2.85;;;;;;;12.31;54.98;96546.72;4929759;28;20348;-88
2022/02/17 11:09:19;;;;;;;18.10;3.30;;;;;;;12.23;55.07;96541.28;4945730;28;20203;-88
2022/02/17 11:11:52;;;;;;;13.40;3.58;;;;;;;12.04;54.27;96539.28;4913988;28;20207;-88
2022/02/17 11:14:41;;;;;;;17.02;3.25;;;;;;;12.08;53.99;96555.97;4940393;28;20650;-87
2022/02/17 11:17:09;;;;;;;11.77;3.42;;;;;;;12.36;53.80;96549.28;4921182;28;20281;-85
2022/02/17 11:19:36;;;;;;;13.95;2.88;;;;;;;12.67;54.09;96558.75;4929883;28;20269;-86
2022/02/17 11:22:03;;;;;;;13.05;2.90;;;;;;;12.76;55.18;96562.31;4929610;28;20161;-87
2022/02/17 11:24:28;;;;;;;16.55;4.22;;;;;;;12.95;53.21;96548.59;4923459;28;20396;-87
2022/02/17 11:27:06;;;;;;;16.05;3.30;;;;;;;13.12;53.25;96554.19;4913028;28;20314;-90
2022/02/17 11:29:33;;;;;;;13.27;2.65;;;;;;;13.19;53.11;96559.88;4913592;28;20314;-88